Time;durP1;ratioP1;P1;durP2;ratioP2;P2;SDS_P1;SDS_P2;PMS_P1;PMS_P2;Temp;Humidity;BMP_temperature;BMP_pressure;BME280_temperature;BME280_humidity;BME280_pressure;Samples;Min_cycle;Max_cycle;Signal;HPM_P1;HPM_P2
2022/04/24 00:02:24;;;;;;;12.13;11.00;;;;;;;7.26;97.03;101136.34;4993134;28;20468;-48
2022/04/24 00:04:52;;;;;;;15.00;10.10;;;;;;;7.21;96.82;101120.91;4992745;28;20488;-51
2022/04/24 00:07:20;;;;;;;11.33;10.33;;;;;;;7.22;96.53;101123.41;4993097;28;20444;-46
2022/04/24 00:09:48;;;;;;;11.47;10.47;;;;;;;7.20;96.94;101129.84;4992964;28;20883;-46
2022/04/24 00:12:18;;;;;;;11.60;10.40;;;;;;;7.17;96.41;101135.50;4992186;28;20458;-46
2022/04/24 00:14:47;;;;;;;11.40;9.87;;;;;;;7.13;96.23;101132.34;4992621;28;20464;-48
2022/04/24 00:17:16;;;;;;;11.00;9.90;;;;;;;7.14;95.52;101134.00;4993140;28;20441;-47
2022/04/24 00:19:44;;;;;;;11.93;10.47;;;;;;;7.13;95.22;101135.00;4992868;28;20480;-45
2022/04/24 00:22:11;;;;;;;15.10;9.40;;;;;;;7.12;95.42;101138.66;4992541;28;20580;-46
2022/04/24 00:24:39;;;;;;;11.17;10.10;;;;;;;7.11;95.33;101130.84;4992372;28;20462;-46
2022/04/24 00:27:08;;;;;;;10.23;8.87;;;;;;;7.12;96.37;101133.34;4993059;28;20465;-46
2022/04/24 00:29:37;;;;;;;11.40;10.40;;;;;;;7.13;96.11;101127.06;4992925;28;20444;-47
2022/04/24 00:32:07;;;;;;;13.10;8.97;;;;;;;7.13;96.59;101134.19;4992558;28;20466;-49
2022/04/24 00:34:35;;;;;;;10.83;8.90;;;;;;;7.12;96.44;101130.69;4992285;28;20470;-48
2022/04/24 00:37:03;;;;;;;13.30;9.70;;;;;;;7.12;96.55;101140.47;4992675;28;20839;-49
2022/04/24 00:39:31;;;;;;;10.63;8.97;;;;;;;7.10;96.53;101134.50;4992906;28;20445;-49
2022/04/24 00:41:59;;;;;;;9.30;8.43;;;;;;;7.09;96.96;101135.50;4992537;28;20453;-46
2022/04/24 00:44:27;;;;;;;16.20;10.00;;;;;;;7.04;96.50;101124.56;4992130;28;20472;-47
2022/04/24 00:47:00;;;;;;;10.53;9.50;;;;;;;7.01;96.26;101131.03;4977336;28;20473;-46
2022/04/24 00:49:28;;;;;;;9.77;8.53;;;;;;;6.97;96.34;101132.34;4986435;28;20430;-46
2022/04/24 00:51:57;;;;;;;9.63;8.83;;;;;;;6.96;95.63;101128.00;4992624;28;20450;-45
2022/04/24 00:54:25;;;;;;;9.80;8.80;;;;;;;6.95;95.08;101129.03;4992176;28;20470;-46
2022/04/24 00:56:53;;;;;;;10.33;9.53;;;;;;;6.93;94.73;101111.63;4992648;28;20426;-49
2022/04/24 00:59:20;;;;;;;12.80;10.07;;;;;;;6.92;95.43;101126.69;4992492;28;20456;-48
2022/04/24 01:01:48;;;;;;;9.33;8.70;;;;;;;6.90;94.72;101120.72;4992138;28;20462;-49
2022/04/24 01:04:19;;;;;;;9.63;8.83;;;;;;;6.89;95.13;101113.78;4992184;28;21084;-47
2022/04/24 01:06:46;;;;;;;11.03;9.90;;;;;;;6.85;94.08;101114.25;4992561;28;20480;-48
2022/04/24 01:09:17;;;;;;;13.17;9.57;;;;;;;6.84;94.43;101113.41;4992500;28;20441;-52
2022/04/24 01:11:46;;;;;;;10.50;9.53;;;;;;;6.83;94.87;101114.44;4992193;28;20536;-46
2022/04/24 01:14:16;;;;;;;10.53;9.53;;;;;;;6.83;94.36;101106.47;4983969;28;20489;-50
2022/04/24 01:16:45;;;;;;;9.70;8.93;;;;;;;6.81;94.92;101105.78;4970385;28;20470;-46
2022/04/24 01:19:13;;;;;;;11.87;9.60;;;;;;;6.82;94.47;101106.63;4970661;28;20461;-49
2022/04/24 01:21:43;;;;;;;10.20;9.40;;;;;;;6.82;95.05;101114.56;4972356;28;20869;-47
2022/04/24 01:24:12;;;;;;;11.67;9.60;;;;;;;6.82;94.89;101115.41;4975991;28;20467;-47
2022/04/24 01:26:40;;;;;;;10.20;9.20;;;;;;;6.84;94.71;101108.09;4976570;28;20478;-48
2022/04/24 01:29:09;;;;;;;10.20;9.47;;;;;;;6.84;94.67;101107.31;4976735;28;20439;-48
2022/04/24 01:31:37;;;;;;;9.70;8.70;;;;;;;6.85;94.65;101115.06;4976369;28;20473;-48
2022/04/24 01:34:05;;;;;;;10.37;8.83;;;;;;;6.84;94.57;101116.06;4976231;28;20479;-47
2022/04/24 01:36:33;;;;;;;10.90;8.53;;;;;;;6.84;94.74;101115.25;4976763;28;20431;-50
2022/04/24 01:39:01;;;;;;;11.00;9.20;;;;;;;6.86;94.52;101110.59;4976455;28;20434;-45
2022/04/24 01:41:30;;;;;;;9.77;9.00;;;;;;;6.88;94.62;101117.41;4975910;28;20451;-47
2022/04/24 01:43:58;;;;;;;10.03;9.33;;;;;;;6.90;94.59;101111.94;4975922;28;20557;-49
2022/04/24 01:46:25;;;;;;;9.57;8.67;;;;;;;6.91;95.39;101111.78;4981278;28;20576;-47
2022/04/24 01:48:53;;;;;;;8.67;7.87;;;;;;;6.93;95.52;101117.72;4987714;28;20441;-45
2022/04/24 01:51:21;;;;;;;9.43;8.43;;;;;;;6.93;95.29;101111.63;4995399;28;20488;-48
2022/04/24 01:53:48;;;;;;;10.00;9.00;;;;;;;6.92;95.38;101115.25;4995106;28;20462;-49
2022/04/24 01:56:17;;;;;;;9.60;8.70;;;;;;;6.90;96.00;101115.41;4995756;28;20429;-47
2022/04/24 01:58:45;;;;;;;11.63;8.53;;;;;;;6.91;95.97;101113.59;4995708;28;20441;-51
2022/04/24 02:01:13;;;;;;;9.40;8.53;;;;;;;6.90;95.59;101115.41;4995405;28;20461;-46
2022/04/24 02:03:41;;;;;;;9.13;8.40;;;;;;;6.88;95.79;101117.41;4995316;28;20982;-45
2022/04/24 02:06:09;;;;;;;8.73;7.90;;;;;;;6.87;95.33;101118.38;4995460;28;20528;-48
2022/04/24 02:08:36;;;;;;;8.97;7.93;;;;;;;6.90;95.27;101119.91;4995102;28;20442;-46
2022/04/24 02:11:06;;;;;;;8.70;7.57;;;;;;;6.91;95.17;101118.91;4995153;28;20504;-46
2022/04/24 02:13:35;;;;;;;8.70;7.80;;;;;;;6.92;95.93;101117.91;4994965;28;20861;-51
2022/04/24 02:16:03;;;;;;;8.37;7.67;;;;;;;6.93;95.05;101111.63;4995396;28;20433;-50
2022/04/24 02:18:31;;;;;;;8.63;8.03;;;;;;;6.95;94.72;101110.47;4995223;28;20433;-47
2022/04/24 02:20:59;;;;;;;7.80;7.13;;;;;;;6.96;94.86;101106.81;4994708;28;20975;-49
2022/04/24 02:23:27;;;;;;;8.87;7.97;;;;;;;6.95;95.22;101115.75;4994832;28;20438;-47
2022/04/24 02:25:55;;;;;;;11.03;7.93;;;;;;;6.94;94.85;101102.66;4994960;28;20994;-49
2022/04/24 02:28:22;;;;;;;9.17;7.97;;;;;;;6.95;94.96;101109.63;4995200;28;20456;-45
2022/04/24 02:30:51;;;;;;;8.13;7.30;;;;;;;6.92;94.63;101102.84;4994858;28;20465;-52
2022/04/24 02:33:19;;;;;;;8.93;8.23;;;;;;;6.92;94.64;101110.78;4994559;28;20521;-52
2022/04/24 02:35:47;;;;;;;8.87;7.70;;;;;;;6.92;95.04;101096.69;4994099;28;20434;-49
2022/04/24 02:38:14;;;;;;;7.77;6.63;;;;;;;6.89;95.85;101103.16;4995068;28;20944;-47
2022/04/24 02:40:42;;;;;;;7.73;7.03;;;;;;;6.91;95.57;101103.00;4994739;28;20438;-49
2022/04/24 02:43:10;;;;;;;7.50;6.90;;;;;;;6.90;95.37;101102.16;4985393;28;20434;-48
2022/04/24 02:45:37;;;;;;;10.00;7.47;;;;;;;6.90;94.48;101094.19;4974491;28;20468;-50
2022/04/24 02:48:07;;;;;;;7.27;6.77;;;;;;;6.90;94.14;101096.84;4984193;28;20810;-47
2022/04/24 02:50:34;;;;;;;6.70;6.30;;;;;;;6.87;93.37;101088.41;4994597;28;20441;-48
2022/04/24 02:53:02;;;;;;;7.10;6.50;;;;;;;6.89;92.99;101099.69;4994767;28;20430;-50
2022/04/24 02:55:29;;;;;;;9.27;8.40;;;;;;;6.89;92.43;101097.88;4994255;28;20504;-47
2022/04/24 02:57:57;;;;;;;9.00;7.83;;;;;;;6.89;92.41;101089.06;4994569;28;20426;-47
2022/04/24 03:00:37;;;;;;;9.00;7.23;;;;;;;6.89;91.91;101083.78;4994301;28;20434;-52
2022/04/24 03:03:07;;;;;;;7.70;6.73;;;;;;;6.85;92.47;101083.28;4994650;28;20429;-48
2022/04/24 03:05:36;;;;;;;7.30;6.70;;;;;;;6.84;92.32;101081.59;4993865;28;20480;-50
2022/04/24 03:08:04;;;;;;;9.30;7.07;;;;;;;6.82;91.66;101078.28;4994269;28;20477;-49
2022/04/24 03:10:32;;;;;;;7.60;6.97;;;;;;;6.80;91.82;101080.28;4993948;28;20440;-48
2022/04/24 03:13:00;;;;;;;8.00;7.20;;;;;;;6.78;92.33;101087.56;4994175;28;20970;-49
2022/04/24 03:15:27;;;;;;;7.40;6.37;;;;;;;6.78;91.90;101078.81;4993679;28;20469;-49
2022/04/24 03:17:55;;;;;;;6.37;6.07;;;;;;;6.73;91.49;101076.63;4994468;28;20426;-47
2022/04/24 03:20:24;;;;;;;7.47;6.97;;;;;;;6.73;91.77;101078.44;4993950;28;20445;-52
2022/04/24 03:22:52;;;;;;;10.23;6.77;;;;;;;6.70;91.85;101076.94;4994048;28;20462;-46
2022/04/24 03:25:20;;;;;;;9.40;6.97;;;;;;;6.65;91.73;101071.31;4993571;28;20983;-48
2022/04/24 03:27:47;;;;;;;7.40;6.80;;;;;;;6.65;91.55;101073.97;4993781;28;20519;-47
2022/04/24 03:30:16;;;;;;;7.07;6.47;;;;;;;6.64;91.85;101073.13;4993592;28;20449;-45
2022/04/24 03:32:43;;;;;;;6.63;6.00;;;;;;;6.62;92.07;101083.06;4993633;28;20461;-47
2022/04/24 03:35:11;;;;;;;6.87;5.87;;;;;;;6.62;92.50;101069.81;4993391;28;20984;-50
2022/04/24 03:37:41;;;;;;;7.30;6.70;;;;;;;6.62;92.09;101064.53;4993837;28;20426;-48
2022/04/24 03:40:09;;;;;;;6.10;5.60;;;;;;;6.63;92.63;101063.50;4993665;28;20442;-45
2022/04/24 03:42:37;;;;;;;6.00;5.60;;;;;;;6.65;91.97;101068.66;4993711;28;20453;-48
2022/04/24 03:45:08;;;;;;;6.83;6.20;;;;;;;6.67;92.54;101064.84;4990134;28;20472;-49
2022/04/24 03:47:36;;;;;;;8.77;7.77;;;;;;;6.66;92.42;101062.34;4977238;28;20554;-46
2022/04/24 03:50:04;;;;;;;6.80;6.30;;;;;;;6.71;93.06;101065.38;4992065;28;21010;-48
2022/04/24 03:52:32;;;;;;;7.27;6.40;;;;;;;6.71;93.14;101069.84;4993607;28;21017;-45
2022/04/24 03:55:01;;;;;;;7.20;6.57;;;;;;;6.73;93.95;101070.50;4992932;28;20472;-46
2022/04/24 03:57:29;;;;;;;14.10;7.57;;;;;;;6.74;94.51;101067.69;4993592;28;20804;-46
2022/04/24 03:59:57;;;;;;;8.33;7.80;;;;;;;6.75;94.03;101068.53;4993303;28;20437;-48
2022/04/24 04:02:25;;;;;;;8.70;7.97;;;;;;;6.75;94.10;101061.38;4993087;28;20460;-46
2022/04/24 04:04:52;;;;;;;8.57;7.90;;;;;;;6.74;94.75;101061.56;4992746;28;20991;-46
2022/04/24 04:07:20;;;;;;;8.83;8.03;;;;;;;6.73;95.00;101058.06;4992926;28;20482;-45
2022/04/24 04:09:48;;;;;;;8.40;7.80;;;;;;;6.74;94.65;101064.22;4993545;28;20460;-47
2022/04/24 04:12:17;;;;;;;7.73;7.13;;;;;;;6.75;94.82;101066.69;4993058;28;20453;-46
2022/04/24 04:14:45;;;;;;;10.70;9.70;;;;;;;6.75;94.70;101066.69;4992725;28;20478;-48
2022/04/24 04:17:12;;;;;;;10.97;9.90;;;;;;;6.78;95.12;101060.25;4993289;28;20433;-52
2022/04/24 04:19:40;;;;;;;9.37;8.67;;;;;;;6.81;96.24;101067.88;4993089;28;20448;-47
2022/04/24 04:22:08;;;;;;;9.27;8.60;;;;;;;6.86;96.64;101065.53;4992543;28;20976;-48
2022/04/24 04:24:35;;;;;;;11.83;10.80;;;;;;;6.93;97.09;101062.06;4992732;28;20465;-46
2022/04/24 04:27:04;;;;;;;9.57;8.90;;;;;;;7.00;97.29;101065.72;4992795;28;20986;-50
2022/04/24 04:29:33;;;;;;;9.93;8.53;;;;;;;7.14;97.48;101065.03;4992882;28;20473;-49
2022/04/24 04:32:02;;;;;;;8.03;7.43;;;;;;;7.50;97.80;101069.97;4992511;28;20493;-48
2022/04/24 04:34:30;;;;;;;8.20;7.60;;;;;;;7.84;98.01;101083.84;4992118;28;20505;-48
2022/04/24 04:36:58;;;;;;;8.70;7.93;;;;;;;8.17;96.27;101077.41;4992732;28;20441;-49
2022/04/24 04:39:25;;;;;;;8.27;7.53;;;;;;;8.38;92.80;101084.00;4992838;28;20442;-48
2022/04/24 04:41:53;;;;;;;8.67;7.73;;;;;;;8.47;91.46;101072.31;4992335;28;20473;-49
2022/04/24 04:44:20;;;;;;;8.10;7.40;;;;;;;8.53;91.30;101090.22;4992271;28;20992;-46
2022/04/24 04:46:49;;;;;;;8.07;7.30;;;;;;;8.73;91.02;101078.13;4977883;28;20442;-50
2022/04/24 04:49:17;;;;;;;8.07;7.50;;;;;;;8.78;89.71;101081.91;4977628;28;20438;-45
2022/04/24 04:51:44;;;;;;;10.57;7.13;;;;;;;9.13;89.08;101074.34;4992247;28;20971;-48
2022/04/24 04:54:12;;;;;;;7.20;6.60;;;;;;;9.56;85.80;101083.44;4992201;28;20874;-45
2022/04/24 04:56:39;;;;;;;7.03;6.43;;;;;;;10.12;82.55;101068.66;4992439;28;20442;-45
2022/04/24 04:59:07;;;;;;;8.83;6.87;;;;;;;10.54;77.18;101079.47;4992224;28;20437;-47
2022/04/24 05:01:35;;;;;;;7.43;6.83;;;;;;;10.93;75.04;101081.72;4992211;28;20457;-50
2022/04/24 05:04:04;;;;;;;7.00;6.50;;;;;;;11.20;73.63;101080.13;4992090;28;20466;-45
2022/04/24 05:06:32;;;;;;;6.53;5.87;;;;;;;11.21;72.28;101085.25;4992522;28;20430;-52
2022/04/24 05:08:59;;;;;;;7.30;6.80;;;;;;;11.72;72.72;101091.25;4992466;28;20473;-48
2022/04/24 05:11:27;;;;;;;7.17;6.70;;;;;;;11.97;71.44;101088.94;4992163;28;20480;-48
2022/04/24 05:13:54;;;;;;;9.30;6.77;;;;;;;12.21;68.41;101083.09;4991895;28;20461;-46
2022/04/24 05:16:22;;;;;;;8.13;7.57;;;;;;;12.49;66.43;101082.97;4992565;28;20426;-48
2022/04/24 05:18:50;;;;;;;8.53;6.50;;;;;;;12.64;67.12;101084.47;4992649;28;20430;-48
2022/04/24 05:21:19;;;;;;;7.67;7.23;;;;;;;12.68;66.33;101084.91;4992397;28;20460;-48
2022/04/24 05:23:48;;;;;;;7.00;6.50;;;;;;;13.30;63.36;101071.22;4991905;28;20485;-50
2022/04/24 05:26:16;;;;;;;6.80;6.40;;;;;;;13.76;61.57;101081.91;4992473;28;20438;-48
2022/04/24 05:28:43;;;;;;;7.03;6.63;;;;;;;13.86;58.61;101079.59;4992081;28;20482;-47
2022/04/24 05:31:11;;;;;;;7.73;7.07;;;;;;;13.51;60.23;101087.06;4991798;28;21118;-47
2022/04/24 05:33:39;;;;;;;8.33;7.73;;;;;;;13.99;60.23;101073.38;4991797;28;20458;-47
2022/04/24 05:36:07;;;;;;;8.00;7.20;;;;;;;14.21;58.06;101067.56;4992274;28;20429;-48
2022/04/24 05:38:36;;;;;;;8.23;7.73;;;;;;;14.61;57.08;101076.25;4992111;28;20436;-47
2022/04/24 05:41:03;;;;;;;7.63;7.13;;;;;;;14.81;58.04;101081.53;4991879;28;20461;-47
2022/04/24 05:43:31;;;;;;;6.90;6.50;;;;;;;14.75;54.43;101067.09;4992310;28;21109;-48
2022/04/24 05:45:59;;;;;;;7.40;6.90;;;;;;;15.01;52.86;101073.34;4977711;28;20442;-50
2022/04/24 05:48:26;;;;;;;8.97;7.00;;;;;;;15.12;52.48;101069.94;4983973;28;20560;-49
2022/04/24 05:50:54;;;;;;;6.90;6.30;;;;;;;15.15;53.26;101064.13;4991818;28;20453;-52
2022/04/24 05:53:22;;;;;;;7.13;6.70;;;;;;;15.25;52.16;101080.59;4991457;28;20935;-50
2022/04/24 05:55:51;;;;;;;7.20;6.67;;;;;;;15.24;51.14;101087.81;4992368;28;20430;-49
2022/04/24 05:58:19;;;;;;;7.80;7.13;;;;;;;15.57;51.75;101065.25;4992231;28;20430;-51
2022/04/24 06:00:46;;;;;;;7.10;6.23;;;;;;;15.46;49.83;101081.03;4992060;28;20787;-50
2022/04/24 06:03:14;;;;;;;6.27;5.93;;;;;;;15.56;50.20;101069.78;4992131;28;20433;-46
2022/04/24 06:05:42;;;;;;;6.43;6.00;;;;;;;15.64;49.10;101072.22;4991276;28;20453;-46
2022/04/24 06:08:09;;;;;;;6.73;6.30;;;;;;;16.10;50.88;101069.03;4991764;28;20838;-48
2022/04/24 06:10:37;;;;;;;7.07;6.20;;;;;;;15.82;47.85;101071.41;4994009;28;20795;-48
2022/04/24 06:13:06;;;;;;;6.13;5.67;;;;;;;15.49;49.14;101061.00;4995600;28;20435;-49
2022/04/24 06:15:34;;;;;;;6.07;5.77;;;;;;;15.45;48.77;101067.81;4994924;28;20464;-53
2022/04/24 06:18:02;;;;;;;6.00;5.70;;;;;;;15.22;48.83;101068.44;4995238;28;20436;-48
2022/04/24 06:20:29;;;;;;;6.10;5.70;;;;;;;14.72;50.79;101078.28;4994924;28;20445;-50
2022/04/24 06:22:58;;;;;;;7.43;6.83;;;;;;;14.29;50.46;101071.84;4995077;28;20442;-46
2022/04/24 06:25:28;;;;;;;6.40;6.00;;;;;;;14.36;51.02;101080.72;4994646;28;20469;-50
2022/04/24 06:27:55;;;;;;;6.03;5.60;;;;;;;14.68;51.49;101063.63;4995068;28;20437;-49
2022/04/24 06:30:26;;;;;;;5.50;5.20;;;;;;;14.85;49.40;101066.63;4994830;28;20438;-48
2022/04/24 06:32:55;;;;;;;5.73;4.83;;;;;;;15.08;49.60;101068.75;4994900;28;20583;-50
2022/04/24 06:35:23;;;;;;;5.80;5.50;;;;;;;14.98;48.82;101063.03;4994339;28;20465;-49
2022/04/24 06:37:53;;;;;;;5.50;5.30;;;;;;;15.23;48.79;101074.63;4994916;28;20434;-50
2022/04/24 06:40:23;;;;;;;5.27;4.97;;;;;;;15.55;47.98;101061.97;4995007;28;20861;-50
2022/04/24 06:42:52;;;;;;;5.50;5.10;;;;;;;15.29;46.81;101060.31;4994956;28;20458;-50
2022/04/24 06:45:25;;;;;;;4.73;4.30;;;;;;;15.07;47.73;101070.59;4987410;28;20455;-51
2022/04/24 06:47:54;;;;;;;5.73;4.40;;;;;;;15.33;47.64;101056.13;4980861;28;20415;-47
2022/04/24 06:50:23;;;;;;;5.60;5.07;;;;;;;15.63;48.25;101061.66;4994427;28;20438;-49
2022/04/24 06:52:58;;;;;;;5.73;5.33;;;;;;;15.59;46.63;101057.81;4994423;28;20454;-50
2022/04/24 06:55:26;;;;;;;4.87;4.47;;;;;;;15.77;46.88;101085.50;4993980;28;20460;-45
2022/04/24 06:57:54;;;;;;;6.20;4.43;;;;;;;15.91;46.39;101064.69;4994501;28;20487;-51
2022/04/24 07:00:23;;;;;;;4.77;4.47;;;;;;;15.42;45.96;101070.94;4992870;28;20549;-47
2022/04/24 07:02:51;;;;;;;5.93;5.07;;;;;;;15.63;46.23;101053.59;4994389;28;20461;-48
2022/04/24 07:05:22;;;;;;;5.07;4.80;;;;;;;15.60;46.71;101056.75;4977539;28;20989;-46
2022/04/24 07:07:50;;;;;;;4.40;4.10;;;;;;;15.37;47.54;101055.47;4957222;28;20925;-47
2022/04/24 07:10:18;;;;;;;4.70;4.30;;;;;;;14.29;49.97;101064.63;4967408;28;20474;-49
2022/04/24 07:12:55;;;;;;;5.23;4.97;;;;;;;14.38;49.31;101054.50;4966047;28;20435;-52
2022/04/24 07:15:24;;;;;;;4.77;4.57;;;;;;;14.70;47.72;101053.50;4972774;28;20929;-50
2022/04/24 07:17:53;;;;;;;5.07;4.80;;;;;;;14.79;48.73;101054.88;4955605;28;20539;-50
2022/04/24 07:20:22;;;;;;;5.23;4.83;;;;;;;14.59;47.75;101062.25;4959778;28;20463;-49
2022/04/24 07:22:52;;;;;;;5.30;5.00;;;;;;;14.76;48.06;101059.84;4963196;28;20455;-50
2022/04/24 07:25:21;;;;;;;5.27;4.90;;;;;;;15.02;47.26;101054.34;4958944;28;20984;-46
2022/04/24 07:27:49;;;;;;;4.60;4.30;;;;;;;14.86;47.97;101049.47;4960618;28;20431;-51
2022/04/24 07:30:19;;;;;;;5.40;5.10;;;;;;;14.69;47.81;101046.50;4965436;28;20475;-49
2022/04/24 07:32:48;;;;;;;5.97;5.57;;;;;;;14.32;49.30;101055.31;4963122;28;20459;-51
2022/04/24 07:35:17;;;;;;;5.63;5.43;;;;;;;14.18;50.61;101051.88;4966539;28;20469;-46
2022/04/24 07:37:46;;;;;;;5.43;5.13;;;;;;;13.84;51.16;101055.69;4965979;28;20462;-48
2022/04/24 07:40:16;;;;;;;5.23;5.03;;;;;;;13.65;51.04;101050.38;4965796;28;20457;-50
2022/04/24 07:42:45;;;;;;;6.20;5.70;;;;;;;13.10;53.23;101057.00;4961459;28;20834;-48
2022/04/24 07:45:18;;;;;;;5.43;5.20;;;;;;;13.00;54.03;101061.91;4957167;28;20464;-46
2022/04/24 07:47:46;;;;;;;5.20;4.83;;;;;;;12.71;53.76;101055.91;4977789;28;20522;-51
2022/04/24 07:50:14;;;;;;;5.70;5.40;;;;;;;12.48;54.47;101049.25;4955066;28;20475;-51
2022/04/24 07:52:42;;;;;;;6.17;5.60;;;;;;;12.23;55.39;101062.31;4970473;28;20461;-46
2022/04/24 07:55:13;;;;;;;5.37;4.97;;;;;;;12.20;55.55;101060.88;4970774;28;20463;-46
2022/04/24 07:57:41;;;;;;;5.50;5.10;;;;;;;12.16;57.81;101056.94;4972045;28;20434;-49
2022/04/24 08:00:10;;;;;;;6.07;5.57;;;;;;;11.80;59.60;101056.34;4956975;28;20783;-45
2022/04/24 08:02:49;;;;;;;6.97;6.43;;;;;;;11.63;58.31;101047.78;4969866;28;20801;-46
2022/04/24 08:05:21;;;;;;;6.07;5.70;;;;;;;11.85;59.23;101053.91;4968623;28;20836;-45
2022/04/24 08:07:49;;;;;;;5.97;5.57;;;;;;;12.05;56.52;101046.00;4969736;28;20431;-47
2022/04/24 08:10:19;;;;;;;5.70;5.50;;;;;;;12.19;55.40;101037.00;4970189;28;20475;-45
2022/04/24 08:12:47;;;;;;;5.50;5.20;;;;;;;12.50;54.53;101045.34;4971544;28;20462;-47
2022/04/24 08:15:15;;;;;;;5.50;5.30;;;;;;;12.74;53.51;101047.47;4969997;28;21003;-47
2022/04/24 08:17:43;;;;;;;6.00;5.57;;;;;;;13.07;53.61;101041.31;4967430;28;20436;-47
2022/04/24 08:20:12;;;;;;;5.10;4.83;;;;;;;12.83;54.09;101036.56;4966320;28;20441;-46
2022/04/24 08:22:42;;;;;;;6.10;5.60;;;;;;;12.83;55.28;101044.59;4965834;28;20459;-48
2022/04/24 08:25:11;;;;;;;6.17;5.70;;;;;;;12.78;54.11;101031.84;4965841;28;20481;-47
2022/04/24 08:27:40;;;;;;;5.10;4.90;;;;;;;12.78;54.83;101040.66;4967867;28;20803;-49
2022/04/24 08:30:10;;;;;;;5.10;4.80;;;;;;;13.07;52.80;101049.34;4976831;28;20529;-47
2022/04/24 08:32:39;;;;;;;5.83;5.03;;;;;;;12.98;54.31;101055.94;4962731;28;20459;-50
2022/04/24 08:35:08;;;;;;;5.10;4.90;;;;;;;13.14;53.02;101045.66;4955415;28;20452;-47
2022/04/24 08:37:37;;;;;;;5.40;5.10;;;;;;;13.22;53.75;101058.03;4970207;28;20431;-52
2022/04/24 08:40:06;;;;;;;4.97;4.77;;;;;;;13.12;53.85;101061.13;4969360;28;20440;-47
2022/04/24 08:42:34;;;;;;;5.80;5.40;;;;;;;13.18;51.91;101057.63;4964763;28;20897;-49
2022/04/24 08:45:05;;;;;;;5.50;5.30;;;;;;;13.60;52.72;101052.84;4967157;28;20464;-52
2022/04/24 08:47:32;;;;;;;4.93;4.73;;;;;;;13.46;52.82;101043.19;4968513;28;20952;-47
2022/04/24 08:50:01;;;;;;;6.07;5.57;;;;;;;12.91;58.52;101063.13;4981129;28;20999;-50
2022/04/24 08:52:30;;;;;;;5.50;5.20;;;;;;;12.44;56.81;101067.56;4972581;28;20453;-51
2022/04/24 08:54:59;;;;;;;5.97;5.63;;;;;;;11.66;59.59;101051.91;4970627;28;20577;-47
2022/04/24 08:57:27;;;;;;;6.50;6.13;;;;;;;11.53;59.25;101039.28;4971993;28;20465;-52
2022/04/24 08:59:55;;;;;;;5.20;4.93;;;;;;;11.48;58.95;101049.75;4971917;28;20523;-47
2022/04/24 09:02:44;;;;;;;6.13;5.63;;;;;;;11.06;60.53;101039.97;4962389;28;20822;-50
2022/04/24 09:05:13;;;;;;;5.70;5.30;;;;;;;11.38;60.56;101054.59;4962595;28;20517;-51
2022/04/24 09:07:43;;;;;;;6.37;4.83;;;;;;;11.43;60.64;101073.53;4968071;28;20438;-49
2022/04/24 09:10:31;;;;;;;5.80;5.47;;;;;;;11.84;58.53;101070.97;4944986;28;20836;-50
2022/04/24 09:12:59;;;;;;;5.40;5.10;;;;;;;12.24;56.73;101039.91;4965770;28;20956;-47
2022/04/24 09:15:28;;;;;;;6.93;5.10;;;;;;;12.43;56.87;101047.16;4965588;28;21148;-45
2022/04/24 09:18:02;;;;;;;6.47;5.97;;;;;;;12.66;54.80;101052.19;4962415;28;20449;-46
2022/04/24 09:20:42;;;;;;;5.77;5.27;;;;;;;12.41;55.48;101057.25;4958690;28;20473;-46
2022/04/24 09:23:09;;;;;;;5.53;5.17;;;;;;;12.81;54.42;101049.34;4965662;28;20434;-48
2022/04/24 09:25:40;;;;;;;6.33;5.93;;;;;;;12.91;52.83;101047.88;4964667;28;20447;-53
2022/04/24 09:28:08;;;;;;;6.63;6.13;;;;;;;13.11;53.35;101040.72;4971403;28;20458;-49
2022/04/24 09:30:36;;;;;;;5.60;5.30;;;;;;;13.26;52.98;101040.53;4962893;28;20470;-48
2022/04/24 09:33:07;;;;;;;5.40;5.10;;;;;;;13.14;52.25;101036.84;4963051;28;20443;-52
2022/04/24 09:35:36;;;;;;;5.97;5.67;;;;;;;13.27;52.95;101048.34;4967927;28;20438;-52
2022/04/24 09:38:09;;;;;;;6.47;6.07;;;;;;;13.27;52.44;101036.81;4974462;28;20997;-49
2022/04/24 09:40:41;;;;;;;6.40;6.00;;;;;;;13.44;51.89;101038.03;4961530;28;20471;-46
2022/04/24 09:43:10;;;;;;;5.53;5.23;;;;;;;12.96;52.70;101045.41;4965191;28;20435;-48
2022/04/24 09:45:40;;;;;;;5.33;5.03;;;;;;;12.92;54.04;101052.22;4974983;28;20439;-46
2022/04/24 09:48:18;;;;;;;5.47;5.03;;;;;;;13.02;53.11;101047.28;4978704;28;20441;-49
2022/04/24 09:50:46;;;;;;;5.90;5.50;;;;;;;13.50;53.21;101050.59;4943824;28;20882;-50
2022/04/24 09:53:15;;;;;;;6.90;6.40;;;;;;;13.16;52.18;101057.00;4973124;28;20804;-48
2022/04/24 09:55:44;;;;;;;5.67;5.47;;;;;;;12.90;54.00;101058.81;4974352;28;20445;-52
2022/04/24 09:58:13;;;;;;;5.97;5.33;;;;;;;12.77;54.72;101049.72;4968893;28;20442;-49
2022/04/24 10:00:42;;;;;;;5.80;5.50;;;;;;;12.57;55.58;101066.78;4971578;28;20470;-50
2022/04/24 10:03:10;;;;;;;5.43;5.07;;;;;;;12.63;56.89;101053.38;4969406;28;20533;-50
2022/04/24 10:05:43;;;;;;;6.83;6.13;;;;;;;12.57;55.50;101061.41;4967097;28;20810;-48
2022/04/24 10:08:10;;;;;;;5.70;5.30;;;;;;;12.79;54.48;101046.84;4974431;28;21105;-47
2022/04/24 10:10:38;;;;;;;5.73;5.20;;;;;;;12.96;53.62;101066.03;4987208;23;21401;-47
2022/04/24 10:13:07;;;;;;;7.93;5.70;;;;;;;12.77;53.42;101065.78;4973200;28;20450;-44
2022/04/24 10:15:38;;;;;;;5.90;5.50;;;;;;;12.89;52.91;101054.47;4974180;28;20434;-46
2022/04/24 10:18:30;;;;;;;5.53;5.27;;;;;;;12.98;53.10;101055.94;4974747;28;20434;-44
2022/04/24 10:21:29;;;;;;;6.20;5.80;;;;;;;13.48;51.92;101057.19;4972246;28;20466;-46
2022/04/24 10:24:07;;;;;;;5.80;5.40;;;;;;;13.59;52.51;101061.94;4975659;28;20434;-50
2022/04/24 10:26:35;;;;;;;6.33;5.93;;;;;;;13.32;52.94;101061.94;4974437;28;20431;-49
2022/04/24 10:29:06;;;;;;;6.00;5.60;;;;;;;13.41;52.40;101048.34;4968733;28;20430;-50
2022/04/24 10:31:44;;;;;;;6.07;5.70;;;;;;;13.47;51.02;101050.22;4973048;28;20463;-45
2022/04/24 10:34:14;;;;;;;7.07;5.73;;;;;;;14.04;51.71;101046.75;4956273;28;20443;-49
2022/04/24 10:36:56;;;;;;;4.90;4.60;;;;;;;13.72;51.26;101043.97;4974028;28;20434;-48
2022/04/24 10:39:27;;;;;;;6.33;5.70;;;;;;;13.83;51.22;101043.31;4965353;28;20445;-50
2022/04/24 10:42:06;;;;;;;6.10;5.80;;;;;;;13.76;50.88;101042.53;4960133;28;20499;-47
2022/04/24 10:44:34;;;;;;;5.70;5.40;;;;;;;13.48;52.84;101051.84;4955728;29;20442;-50
2022/04/24 10:47:11;;;;;;;5.53;5.13;;;;;;;13.51;52.60;101038.03;4953487;29;20450;-50
2022/04/24 10:49:39;;;;;;;5.67;5.30;;;;;;;13.36;53.83;101045.47;4953457;29;20438;-49
2022/04/24 10:52:08;;;;;;;6.07;5.63;;;;;;;13.40;52.33;101046.69;4955218;28;20478;-48
2022/04/24 10:54:38;;;;;;;5.70;5.40;;;;;;;13.57;52.43;101054.09;4955707;28;20440;-47
2022/04/24 10:57:17;;;;;;;5.57;5.17;;;;;;;13.45;52.71;101046.91;4955293;29;20443;-49
2022/04/24 10:59:48;;;;;;;5.67;5.37;;;;;;;13.23;52.10;101051.66;4956028;29;20864;-47
2022/04/24 11:02:21;;;;;;;5.73;5.17;;;;;;;13.21;54.22;101046.50;4954991;28;20463;-47
2022/04/24 11:04:58;;;;;;;5.87;5.57;;;;;;;13.27;52.95;101053.72;4955879;29;20436;-48
2022/04/24 11:07:27;;;;;;;5.70;5.40;;;;;;;13.40;53.38;101057.41;4955696;29;20486;-50
2022/04/24 11:10:01;;;;;;;5.97;5.67;;;;;;;13.46;54.26;101046.69;4955584;29;20472;-51
2022/04/24 11:12:31;;;;;;;6.00;5.70;;;;;;;13.37;53.22;101055.16;4970132;28;20506;-47
2022/04/24 11:15:02;;;;;;;6.07;5.60;;;;;;;13.13;53.11;101048.56;4974948;28;20533;-48
2022/04/24 11:17:30;;;;;;;6.40;6.00;;;;;;;13.03;53.38;101042.75;4974710;28;20427;-47
2022/04/24 11:20:00;;;;;;;5.47;5.07;;;;;;;12.88;54.17;101047.47;4974712;28;20962;-49
2022/04/24 11:22:31;;;;;;;6.50;5.90;;;;;;;12.80;55.91;101047.66;4973970;28;20541;-50
2022/04/24 11:25:00;;;;;;;5.70;5.30;;;;;;;12.74;54.65;101030.59;4974118;28;20435;-50
2022/04/24 11:27:28;;;;;;;6.40;6.00;;;;;;;12.53;56.55;101066.34;4974785;28;20439;-46
2022/04/24 11:29:56;;;;;;;6.80;6.20;;;;;;;12.80;54.94;101036.97;4974659;28;20454;-51
2022/04/24 11:32:24;;;;;;;6.90;6.50;;;;;;;13.06;54.15;101039.66;4973069;28;20475;-48
2022/04/24 11:34:52;;;;;;;7.40;5.80;;;;;;;13.18;52.99;101048.75;4974433;28;20801;-48
2022/04/24 11:37:23;;;;;;;6.13;5.73;;;;;;;12.77;54.07;101054.25;4973983;28;20443;-47